sensor_id;sensor_type;location;lat;lon;timestamp;temperature;humidity
22917;DHT22;11624;53.250;7.456;2024-01-30T00:00:25;12.93;53.96
22917;DHT22;11624;53.250;7.456;2024-01-30T00:02:54;12.91;54.02
22917;DHT22;11624;53.250;7.456;2024-01-30T00:05:22;12.91;54.00
22917;DHT22;11624;53.250;7.456;2024-01-30T00:07:51;12.87;54.19
22917;DHT22;11624;53.250;7.456;2024-01-30T00:10:19;12.84;54.34
22917;DHT22;11624;53.250;7.456;2024-01-30T00:12:48;12.86;54.27
22917;DHT22;11624;53.250;7.456;2024-01-30T00:15:16;12.84;54.38
22917;DHT22;11624;53.250;7.456;2024-01-30T00:17:46;12.84;54.27
22917;DHT22;11624;53.250;7.456;2024-01-30T00:20:15;12.85;54.22
22917;DHT22;11624;53.250;7.456;2024-01-30T00:22:43;12.82;54.28
22917;DHT22;11624;53.250;7.456;2024-01-30T00:25:12;12.86;54.02
22917;DHT22;11624;53.250;7.456;2024-01-30T00:27:41;12.82;53.99
22917;DHT22;11624;53.250;7.456;2024-01-30T00:30:11;12.76;54.24
22917;DHT22;11624;53.250;7.456;2024-01-30T00:32:39;12.76;54.15
22917;DHT22;11624;53.250;7.456;2024-01-30T00:35:09;12.73;54.02
22917;DHT22;11624;53.250;7.456;2024-01-30T00:37:38;12.74;54.05
22917;DHT22;11624;53.250;7.456;2024-01-30T00:40:07;12.72;54.17
22917;DHT22;11624;53.250;7.456;2024-01-30T00:42:37;12.73;54.17
22917;DHT22;11624;53.250;7.456;2024-01-30T00:45:06;12.71;54.27
22917;DHT22;11624;53.250;7.456;2024-01-30T00:47:39;12.71;54.33
22917;DHT22;11624;53.250;7.456;2024-01-30T00:50:10;12.75;54.10
22917;DHT22;11624;53.250;7.456;2024-01-30T00:52:38;12.76;54.08
22917;DHT22;11624;53.250;7.456;2024-01-30T00:55:08;12.72;54.16
22917;DHT22;11624;53.250;7.456;2024-01-30T00:57:37;12.69;54.26
22917;DHT22;11624;53.250;7.456;2024-01-30T01:00:06;12.66;54.38
22917;DHT22;11624;53.250;7.456;2024-01-30T01:02:35;12.65;54.37
22917;DHT22;11624;53.250;7.456;2024-01-30T01:05:05;12.62;54.41
22917;DHT22;11624;53.250;7.456;2024-01-30T01:07:34;12.62;54.31
22917;DHT22;11624;53.250;7.456;2024-01-30T01:10:04;12.60;54.30
22917;DHT22;11624;53.250;7.456;2024-01-30T01:12:32;12.58;54.23
22917;DHT22;11624;53.250;7.456;2024-01-30T01:15:01;12.57;54.25
22917;DHT22;11624;53.250;7.456;2024-01-30T01:17:29;12.50;54.45
22917;DHT22;11624;53.250;7.456;2024-01-30T01:19:58;12.47;54.65
22917;DHT22;11624;53.250;7.456;2024-01-30T01:22:27;12.47;54.70
22917;DHT22;11624;53.250;7.456;2024-01-30T01:24:57;12.48;54.66
22917;DHT22;11624;53.250;7.456;2024-01-30T01:27:25;12.48;54.69
22917;DHT22;11624;53.250;7.456;2024-01-30T01:29:54;12.47;54.73
22917;DHT22;11624;53.250;7.456;2024-01-30T01:32:23;12.46;54.78
22917;DHT22;11624;53.250;7.456;2024-01-30T01:34:51;12.44;54.94
22917;DHT22;11624;53.250;7.456;2024-01-30T01:37:20;12.40;55.13
22917;DHT22;11624;53.250;7.456;2024-01-30T01:39:49;12.40;55.12
22917;DHT22;11624;53.250;7.456;2024-01-30T01:42:19;12.40;55.05
22917;DHT22;11624;53.250;7.456;2024-01-30T01:44:48;12.36;55.17
22917;DHT22;11624;53.250;7.456;2024-01-30T01:47:16;12.34;55.31
22917;DHT22;11624;53.250;7.456;2024-01-30T01:49:45;12.31;55.42
22917;DHT22;11624;53.250;7.456;2024-01-30T01:52:13;12.29;55.41
22917;DHT22;11624;53.250;7.456;2024-01-30T01:54:42;12.30;55.47
22917;DHT22;11624;53.250;7.456;2024-01-30T01:57:11;12.23;55.78
22917;DHT22;11624;53.250;7.456;2024-01-30T01:59:41;12.25;55.63
22917;DHT22;11624;53.250;7.456;2024-01-30T02:02:11;12.19;55.81
22917;DHT22;11624;53.250;7.456;2024-01-30T02:04:43;12.20;55.90
22917;DHT22;11624;53.250;7.456;2024-01-30T02:07:12;12.20;55.82
22917;DHT22;11624;53.250;7.456;2024-01-30T02:09:40;12.18;56.03
22917;DHT22;11624;53.250;7.456;2024-01-30T02:12:09;12.22;56.00
22917;DHT22;11624;53.250;7.456;2024-01-30T02:14:46;12.21;55.42
22917;DHT22;11624;53.250;7.456;2024-01-30T02:17:16;12.19;56.07
22917;DHT22;11624;53.250;7.456;2024-01-30T02:19:45;12.20;56.24
22917;DHT22;11624;53.250;7.456;2024-01-30T02:22:15;12.21;56.19
22917;DHT22;11624;53.250;7.456;2024-01-30T02:24:45;12.20;56.26
22917;DHT22;11624;53.250;7.456;2024-01-30T02:27:13;12.23;56.16
22917;DHT22;11624;53.250;7.456;2024-01-30T02:29:42;12.23;56.33
22917;DHT22;11624;53.250;7.456;2024-01-30T02:32:10;12.26;56.21
22917;DHT22;11624;53.250;7.456;2024-01-30T02:34:39;12.28;56.02
22917;DHT22;11624;53.250;7.456;2024-01-30T02:37:08;12.29;55.90
22917;DHT22;11624;53.250;7.456;2024-01-30T02:39:38;12.27;55.87
22917;DHT22;11624;53.250;7.456;2024-01-30T02:42:06;12.22;56.29
22917;DHT22;11624;53.250;7.456;2024-01-30T02:44:35;12.26;56.08
22917;DHT22;11624;53.250;7.456;2024-01-30T02:47:04;12.27;55.87
22917;DHT22;11624;53.250;7.456;2024-01-30T02:49:32;12.21;56.05
22917;DHT22;11624;53.250;7.456;2024-01-30T02:52:01;12.19;56.25
22917;DHT22;11624;53.250;7.456;2024-01-30T02:54:30;12.21;56.26
22917;DHT22;11624;53.250;7.456;2024-01-30T02:57:00;12.19;56.27
22917;DHT22;11624;53.250;7.456;2024-01-30T02:59:28;12.20;56.34
22917;DHT22;11624;53.250;7.456;2024-01-30T03:01:57;12.20;56.36
22917;DHT22;11624;53.250;7.456;2024-01-30T03:04:25;12.22;56.15
22917;DHT22;11624;53.250;7.456;2024-01-30T03:06:54;12.22;56.12
22917;DHT22;11624;53.250;7.456;2024-01-30T03:09:22;12.22;56.18
22917;DHT22;11624;53.250;7.456;2024-01-30T03:11:51;12.18;56.27
22917;DHT22;11624;53.250;7.456;2024-01-30T03:14:21;12.19;56.19
22917;DHT22;11624;53.250;7.456;2024-01-30T03:16:49;12.17;56.30
22917;DHT22;11624;53.250;7.456;2024-01-30T03:19:18;12.13;56.52
22917;DHT22;11624;53.250;7.456;2024-01-30T03:21:46;12.14;56.52
22917;DHT22;11624;53.250;7.456;2024-01-30T03:24:15;12.16;56.39
22917;DHT22;11624;53.250;7.456;2024-01-30T03:26:44;12.17;56.20
22917;DHT22;11624;53.250;7.456;2024-01-30T03:29:12;12.11;56.35
22917;DHT22;11624;53.250;7.456;2024-01-30T03:31:42;12.10;56.30
22917;DHT22;11624;53.250;7.456;2024-01-30T03:34:10;12.10;56.41
22917;DHT22;11624;53.250;7.456;2024-01-30T03:36:39;12.03;56.71
22917;DHT22;11624;53.250;7.456;2024-01-30T03:39:08;12.04;56.87
22917;DHT22;11624;53.250;7.456;2024-01-30T03:41:36;12.07;56.80
22917;DHT22;11624;53.250;7.456;2024-01-30T03:44:06;12.10;56.65
22917;DHT22;11624;53.250;7.456;2024-01-30T03:46:34;12.12;56.56
22917;DHT22;11624;53.250;7.456;2024-01-30T03:49:04;12.12;56.53
22917;DHT22;11624;53.250;7.456;2024-01-30T03:51:33;12.12;56.73
22917;DHT22;11624;53.250;7.456;2024-01-30T03:54:01;12.05;57.35
22917;DHT22;11624;53.250;7.456;2024-01-30T03:56:30;12.12;57.48
22917;DHT22;11624;53.250;7.456;2024-01-30T03:58:58;12.18;57.34
22917;DHT22;11624;53.250;7.456;2024-01-30T04:01:27;12.21;57.26
22917;DHT22;11624;53.250;7.456;2024-01-30T04:03:56;12.26;57.05
22917;DHT22;11624;53.250;7.456;2024-01-30T04:06:26;12.20;57.29
22917;DHT22;11624;53.250;7.456;2024-01-30T04:08:54;12.26;57.14
22917;DHT22;11624;53.250;7.456;2024-01-30T04:11:23;12.28;56.87
22917;DHT22;11624;53.250;7.456;2024-01-30T04:13:52;12.27;56.84
22917;DHT22;11624;53.250;7.456;2024-01-30T04:16:20;12.26;56.76
22917;DHT22;11624;53.250;7.456;2024-01-30T04:18:50;12.23;56.73
22917;DHT22;11624;53.250;7.456;2024-01-30T04:21:20;12.21;56.77
22917;DHT22;11624;53.250;7.456;2024-01-30T04:23:51;12.26;56.57
22917;DHT22;11624;53.250;7.456;2024-01-30T04:26:19;12.25;56.64
22917;DHT22;11624;53.250;7.456;2024-01-30T04:28:48;12.25;56.81
22917;DHT22;11624;53.250;7.456;2024-01-30T04:31:16;12.27;56.80
22917;DHT22;11624;53.250;7.456;2024-01-30T04:33:45;12.31;56.72
22917;DHT22;11624;53.250;7.456;2024-01-30T04:36:13;12.31;56.72
22917;DHT22;11624;53.250;7.456;2024-01-30T04:38:42;12.33;56.67
22917;DHT22;11624;53.250;7.456;2024-01-30T04:41:12;12.34;56.53
22917;DHT22;11624;53.250;7.456;2024-01-30T04:43:40;12.37;56.61
22917;DHT22;11624;53.250;7.456;2024-01-30T04:46:09;12.38;56.73
22917;DHT22;11624;53.250;7.456;2024-01-30T04:48:37;12.43;56.81
22917;DHT22;11624;53.250;7.456;2024-01-30T04:51:06;12.48;56.85
22917;DHT22;11624;53.250;7.456;2024-01-30T04:53:34;12.52;57.10
22917;DHT22;11624;53.250;7.456;2024-01-30T04:56:05;12.57;56.93
22917;DHT22;11624;53.250;7.456;2024-01-30T04:58:35;12.55;57.22
22917;DHT22;11624;53.250;7.456;2024-01-30T05:01:04;12.63;57.45
22917;DHT22;11624;53.250;7.456;2024-01-30T05:03:33;12.71;57.26
22917;DHT22;11624;53.250;7.456;2024-01-30T05:06:02;12.73;57.14
22917;DHT22;11624;53.250;7.456;2024-01-30T05:08:31;12.72;57.12
22917;DHT22;11624;53.250;7.456;2024-01-30T05:11:00;12.73;57.03
22917;DHT22;11624;53.250;7.456;2024-01-30T05:13:31;12.74;57.00
22917;DHT22;11624;53.250;7.456;2024-01-30T05:16:02;12.73;56.96
22917;DHT22;11624;53.250;7.456;2024-01-30T05:18:31;12.73;57.09
22917;DHT22;11624;53.250;7.456;2024-01-30T05:20:59;12.67;57.29
22917;DHT22;11624;53.250;7.456;2024-01-30T05:23:28;12.69;57.33
22917;DHT22;11624;53.250;7.456;2024-01-30T05:25:56;12.67;57.45
22917;DHT22;11624;53.250;7.456;2024-01-30T05:28:28;12.70;57.42
22917;DHT22;11624;53.250;7.456;2024-01-30T05:30:57;12.73;57.36
22917;DHT22;11624;53.250;7.456;2024-01-30T05:33:27;12.75;57.25
22917;DHT22;11624;53.250;7.456;2024-01-30T05:35:56;12.70;57.55
22917;DHT22;11624;53.250;7.456;2024-01-30T05:38:25;12.74;57.52
22917;DHT22;11624;53.250;7.456;2024-01-30T05:40:53;12.77;57.55
22917;DHT22;11624;53.250;7.456;2024-01-30T05:43:21;12.82;57.41
22917;DHT22;11624;53.250;7.456;2024-01-30T05:45:51;12.85;57.40
22917;DHT22;11624;53.250;7.456;2024-01-30T05:48:19;12.89;57.37
22917;DHT22;11624;53.250;7.456;2024-01-30T05:50:49;12.92;57.09
22917;DHT22;11624;53.250;7.456;2024-01-30T05:53:18;12.93;57.10
22917;DHT22;11624;53.250;7.456;2024-01-30T05:55:46;12.93;57.10
22917;DHT22;11624;53.250;7.456;2024-01-30T05:58:15;12.93;57.16
22917;DHT22;11624;53.250;7.456;2024-01-30T06:00:43;12.91;57.21
22917;DHT22;11624;53.250;7.456;2024-01-30T06:03:12;12.92;57.21
22917;DHT22;11624;53.250;7.456;2024-01-30T06:05:40;12.93;57.32
22917;DHT22;11624;53.250;7.456;2024-01-30T06:08:10;12.99;57.17
22917;DHT22;11624;53.250;7.456;2024-01-30T06:10:39;13.01;57.18
22917;DHT22;11624;53.250;7.456;2024-01-30T06:13:07;13.02;57.22
22917;DHT22;11624;53.250;7.456;2024-01-30T06:15:36;13.05;57.30
22917;DHT22;11624;53.250;7.456;2024-01-30T06:18:04;13.07;57.29
22917;DHT22;11624;53.250;7.456;2024-01-30T06:20:33;13.11;57.29
22917;DHT22;11624;53.250;7.456;2024-01-30T06:23:02;13.17;57.16
22917;DHT22;11624;53.250;7.456;2024-01-30T06:25:32;13.20;57.16
22917;DHT22;11624;53.250;7.456;2024-01-30T06:28:00;13.25;57.13
22917;DHT22;11624;53.250;7.456;2024-01-30T06:30:29;13.34;56.95
22917;DHT22;11624;53.250;7.456;2024-01-30T06:32:57;13.32;57.02
22917;DHT22;11624;53.250;7.456;2024-01-30T06:35:26;13.30;57.16
22917;DHT22;11624;53.250;7.456;2024-01-30T06:37:55;13.32;57.21
22917;DHT22;11624;53.250;7.456;2024-01-30T06:40:24;13.34;57.13
22917;DHT22;11624;53.250;7.456;2024-01-30T06:42:54;13.36;57.16
22917;DHT22;11624;53.250;7.456;2024-01-30T06:45:23;13.41;57.03
22917;DHT22;11624;53.250;7.456;2024-01-30T06:47:51;13.45;56.97
22917;DHT22;11624;53.250;7.456;2024-01-30T06:50:19;13.53;56.84
22917;DHT22;11624;53.250;7.456;2024-01-30T06:52:48;13.60;56.55
22917;DHT22;11624;53.250;7.456;2024-01-30T06:55:17;13.63;56.47
22917;DHT22;11624;53.250;7.456;2024-01-30T06:57:46;13.62;56.48
22917;DHT22;11624;53.250;7.456;2024-01-30T07:00:19;13.68;56.29
22917;DHT22;11624;53.250;7.456;2024-01-30T07:02:48;13.69;56.42
22917;DHT22;11624;53.250;7.456;2024-01-30T07:05:17;13.75;56.22
22917;DHT22;11624;53.250;7.456;2024-01-30T07:07:45;13.77;56.19
22917;DHT22;11624;53.250;7.456;2024-01-30T07:10:14;13.81;56.26
22917;DHT22;11624;53.250;7.456;2024-01-30T07:12:42;13.88;56.17
22917;DHT22;11624;53.250;7.456;2024-01-30T07:15:11;13.84;56.49
22917;DHT22;11624;53.250;7.456;2024-01-30T07:17:45;13.96;56.17
22917;DHT22;11624;53.250;7.456;2024-01-30T07:20:13;13.98;56.36
22917;DHT22;11624;53.250;7.456;2024-01-30T07:22:44;14.05;56.07
22917;DHT22;11624;53.250;7.456;2024-01-30T07:25:13;14.06;56.22
22917;DHT22;11624;53.250;7.456;2024-01-30T07:27:41;14.14;56.05
22917;DHT22;11624;53.250;7.456;2024-01-30T07:30:10;14.19;55.90
22917;DHT22;11624;53.250;7.456;2024-01-30T07:32:38;14.22;55.74
22917;DHT22;11624;53.250;7.456;2024-01-30T07:35:08;14.29;55.50
22917;DHT22;11624;53.250;7.456;2024-01-30T07:37:38;14.30;55.50
22917;DHT22;11624;53.250;7.456;2024-01-30T07:40:07;14.29;55.69
22917;DHT22;11624;53.250;7.456;2024-01-30T07:42:36;14.29;55.65
22917;DHT22;11624;53.250;7.456;2024-01-30T07:45:05;14.36;55.55
22917;DHT22;11624;53.250;7.456;2024-01-30T07:47:34;14.37;55.46
22917;DHT22;11624;53.250;7.456;2024-01-30T07:50:03;14.33;55.68
22917;DHT22;11624;53.250;7.456;2024-01-30T07:52:33;14.43;55.46
22917;DHT22;11624;53.250;7.456;2024-01-30T07:55:01;14.48;55.39
22917;DHT22;11624;53.250;7.456;2024-01-30T07:57:32;14.52;55.24
22917;DHT22;11624;53.250;7.456;2024-01-30T08:00:01;14.58;55.15
22917;DHT22;11624;53.250;7.456;2024-01-30T08:02:32;14.64;54.96
22917;DHT22;11624;53.250;7.456;2024-01-30T08:05:01;14.58;55.04
22917;DHT22;11624;53.250;7.456;2024-01-30T08:07:30;14.58;55.07
22917;DHT22;11624;53.250;7.456;2024-01-30T08:09:59;14.69;54.80
22917;DHT22;11624;53.250;7.456;2024-01-30T08:12:28;14.73;54.75
22917;DHT22;11624;53.250;7.456;2024-01-30T08:14:57;14.77;54.70
22917;DHT22;11624;53.250;7.456;2024-01-30T08:17:25;14.84;54.59
22917;DHT22;11624;53.250;7.456;2024-01-30T08:19:54;14.85;54.61
22917;DHT22;11624;53.250;7.456;2024-01-30T08:22:22;14.86;54.69
22917;DHT22;11624;53.250;7.456;2024-01-30T08:24:51;14.89;54.62
22917;DHT22;11624;53.250;7.456;2024-01-30T08:27:23;14.93;54.37
22917;DHT22;11624;53.250;7.456;2024-01-30T08:29:51;14.87;54.53
22917;DHT22;11624;53.250;7.456;2024-01-30T08:32:20;14.95;54.39
22917;DHT22;11624;53.250;7.456;2024-01-30T08:34:48;14.95;54.36
22917;DHT22;11624;53.250;7.456;2024-01-30T08:37:17;14.92;54.53
22917;DHT22;11624;53.250;7.456;2024-01-30T08:39:45;15.00;54.29
22917;DHT22;11624;53.250;7.456;2024-01-30T08:42:14;15.03;54.21
22917;DHT22;11624;53.250;7.456;2024-01-30T08:44:46;15.06;54.01
22917;DHT22;11624;53.250;7.456;2024-01-30T08:47:16;14.98;54.23
22917;DHT22;11624;53.250;7.456;2024-01-30T08:49:45;14.97;54.24
22917;DHT22;11624;53.250;7.456;2024-01-30T08:52:14;14.97;54.29
22917;DHT22;11624;53.250;7.456;2024-01-30T08:54:42;15.04;54.17
22917;DHT22;11624;53.250;7.456;2024-01-30T08:57:11;15.04;54.13
22917;DHT22;11624;53.250;7.456;2024-01-30T08:59:39;15.09;54.09
22917;DHT22;11624;53.250;7.456;2024-01-30T09:02:09;15.11;53.84
22917;DHT22;11624;53.250;7.456;2024-01-30T09:04:40;15.07;54.12
22917;DHT22;11624;53.250;7.456;2024-01-30T09:07:09;15.06;54.26
22917;DHT22;11624;53.250;7.456;2024-01-30T09:09:38;15.10;54.17
22917;DHT22;11624;53.250;7.456;2024-01-30T09:12:07;15.10;54.24
22917;DHT22;11624;53.250;7.456;2024-01-30T09:14:40;15.16;54.18
22917;DHT22;11624;53.250;7.456;2024-01-30T09:17:10;15.19;54.11
22917;DHT22;11624;53.250;7.456;2024-01-30T09:19:40;15.12;54.39
22917;DHT22;11624;53.250;7.456;2024-01-30T09:22:09;15.22;54.19
22917;DHT22;11624;53.250;7.456;2024-01-30T09:24:37;15.26;54.17
22917;DHT22;11624;53.250;7.456;2024-01-30T09:27:05;15.26;54.23
22917;DHT22;11624;53.250;7.456;2024-01-30T09:29:34;15.23;54.32
22917;DHT22;11624;53.250;7.456;2024-01-30T09:32:04;15.33;54.08
22917;DHT22;11624;53.250;7.456;2024-01-30T09:34:35;15.38;54.01
22917;DHT22;11624;53.250;7.456;2024-01-30T09:37:04;15.47;53.87
22917;DHT22;11624;53.250;7.456;2024-01-30T09:39:32;15.46;53.87
22917;DHT22;11624;53.250;7.456;2024-01-30T09:42:05;15.49;53.74
22917;DHT22;11624;53.250;7.456;2024-01-30T09:44:35;15.58;53.56
22917;DHT22;11624;53.250;7.456;2024-01-30T09:47:04;15.63;53.61
22917;DHT22;11624;53.250;7.456;2024-01-30T09:49:35;15.71;53.27
22917;DHT22;11624;53.250;7.456;2024-01-30T09:52:05;15.72;53.35
22917;DHT22;11624;53.250;7.456;2024-01-30T09:54:35;15.78;53.30
22917;DHT22;11624;53.250;7.456;2024-01-30T09:57:04;15.76;53.16
22917;DHT22;11624;53.250;7.456;2024-01-30T09:59:34;15.87;53.14
22917;DHT22;11624;53.250;7.456;2024-01-30T10:02:02;15.87;53.08
22917;DHT22;11624;53.250;7.456;2024-01-30T10:04:31;15.88;53.17
22917;DHT22;11624;53.250;7.456;2024-01-30T10:07:02;15.91;53.02
22917;DHT22;11624;53.250;7.456;2024-01-30T10:09:34;15.96;52.91
22917;DHT22;11624;53.250;7.456;2024-01-30T10:12:04;16.10;52.69
22917;DHT22;11624;53.250;7.456;2024-01-30T10:14:32;16.16;52.75
22917;DHT22;11624;53.250;7.456;2024-01-30T10:17:01;16.21;52.85
22917;DHT22;11624;53.250;7.456;2024-01-30T10:19:42;16.24;52.56
22917;DHT22;11624;53.250;7.456;2024-01-30T10:22:14;16.28;52.60
22917;DHT22;11624;53.250;7.456;2024-01-30T10:24:43;16.35;52.56
22917;DHT22;11624;53.250;7.456;2024-01-30T10:27:12;16.40;52.50
22917;DHT22;11624;53.250;7.456;2024-01-30T10:29:41;16.39;52.47
22917;DHT22;11624;53.250;7.456;2024-01-30T10:32:09;16.32;52.81
22917;DHT22;11624;53.250;7.456;2024-01-30T10:34:37;16.42;52.76
22917;DHT22;11624;53.250;7.456;2024-01-30T10:37:08;16.47;52.46
22917;DHT22;11624;53.250;7.456;2024-01-30T10:39:42;16.51;52.32
22917;DHT22;11624;53.250;7.456;2024-01-30T10:42:12;16.48;52.58
22917;DHT22;11624;53.250;7.456;2024-01-30T10:44:48;16.44;52.43
22917;DHT22;11624;53.250;7.456;2024-01-30T10:47:26;16.33;52.87
22917;DHT22;11624;53.250;7.456;2024-01-30T10:49:55;16.43;52.90
22917;DHT22;11624;53.250;7.456;2024-01-30T10:52:25;16.47;52.78
22917;DHT22;11624;53.250;7.456;2024-01-30T10:54:56;16.58;52.70
22917;DHT22;11624;53.250;7.456;2024-01-30T10:57:25;16.60;52.64
22917;DHT22;11624;53.250;7.456;2024-01-30T10:59:57;16.57;52.67
22917;DHT22;11624;53.250;7.456;2024-01-30T11:02:26;16.63;52.77
22917;DHT22;11624;53.250;7.456;2024-01-30T11:04:57;16.77;52.40
22917;DHT22;11624;53.250;7.456;2024-01-30T11:07:28;16.85;52.39
22917;DHT22;11624;53.250;7.456;2024-01-30T11:10:02;16.86;52.00
22917;DHT22;11624;53.250;7.456;2024-01-30T11:12:32;16.91;52.33
22917;DHT22;11624;53.250;7.456;2024-01-30T11:15:06;16.96;52.04
22917;DHT22;11624;53.250;7.456;2024-01-30T11:17:45;16.96;52.04
22917;DHT22;11624;53.250;7.456;2024-01-30T11:20:15;16.95;52.32
22917;DHT22;11624;53.250;7.456;2024-01-30T11:22:45;17.02;52.48
22917;DHT22;11624;53.250;7.456;2024-01-30T11:25:16;17.17;52.30
22917;DHT22;11624;53.250;7.456;2024-01-30T11:27:46;17.23;52.00
22917;DHT22;11624;53.250;7.456;2024-01-30T11:30:22;17.21;51.58
22917;DHT22;11624;53.250;7.456;2024-01-30T11:33:01;17.25;51.56
22917;DHT22;11624;53.250;7.456;2024-01-30T11:35:33;17.22;52.05
22917;DHT22;11624;53.250;7.456;2024-01-30T11:38:02;17.15;52.07
22917;DHT22;11624;53.250;7.456;2024-01-30T11:40:33;17.16;52.18
22917;DHT22;11624;53.250;7.456;2024-01-30T11:43:04;17.18;52.30
22917;DHT22;11624;53.250;7.456;2024-01-30T11:45:34;17.11;52.32
22917;DHT22;11624;53.250;7.456;2024-01-30T11:48:03;17.18;52.45
22917;DHT22;11624;53.250;7.456;2024-01-30T11:50:33;17.18;52.47
22917;DHT22;11624;53.250;7.456;2024-01-30T11:53:02;17.20;52.61
22917;DHT22;11624;53.250;7.456;2024-01-30T11:55:32;17.20;52.42
22917;DHT22;11624;53.250;7.456;2024-01-30T11:58:03;17.17;52.69
22917;DHT22;11624;53.250;7.456;2024-01-30T12:00:32;17.29;52.58
22917;DHT22;11624;53.250;7.456;2024-01-30T12:03:03;17.34;52.43
22917;DHT22;11624;53.250;7.456;2024-01-30T12:05:33;17.35;52.36
22917;DHT22;11624;53.250;7.456;2024-01-30T12:08:03;17.37;52.52
22917;DHT22;11624;53.250;7.456;2024-01-30T12:10:33;17.38;52.44
22917;DHT22;11624;53.250;7.456;2024-01-30T12:13:02;17.36;52.62
22917;DHT22;11624;53.250;7.456;2024-01-30T12:15:31;17.36;52.63
22917;DHT22;11624;53.250;7.456;2024-01-30T12:18:06;17.43;52.11
22917;DHT22;11624;53.250;7.456;2024-01-30T12:20:35;17.40;52.54
22917;DHT22;11624;53.250;7.456;2024-01-30T12:23:04;17.43;52.51
22917;DHT22;11624;53.250;7.456;2024-01-30T12:25:33;17.44;52.52
22917;DHT22;11624;53.250;7.456;2024-01-30T12:28:03;17.40;52.51
22917;DHT22;11624;53.250;7.456;2024-01-30T12:30:31;17.35;52.65
22917;DHT22;11624;53.250;7.456;2024-01-30T12:33:00;17.31;52.72
22917;DHT22;11624;53.250;7.456;2024-01-30T12:35:31;17.26;52.80
22917;DHT22;11624;53.250;7.456;2024-01-30T12:38:00;17.26;52.77
22917;DHT22;11624;53.250;7.456;2024-01-30T12:40:29;17.26;52.91
22917;DHT22;11624;53.250;7.456;2024-01-30T12:42:59;17.38;52.67
22917;DHT22;11624;53.250;7.456;2024-01-30T12:45:28;17.45;52.54
22917;DHT22;11624;53.250;7.456;2024-01-30T12:47:56;17.43;52.53
22917;DHT22;11624;53.250;7.456;2024-01-30T12:50:25;17.39;52.66
22917;DHT22;11624;53.250;7.456;2024-01-30T12:52:53;17.46;52.52
22917;DHT22;11624;53.250;7.456;2024-01-30T12:55:23;17.40;52.64
22917;DHT22;11624;53.250;7.456;2024-01-30T12:57:55;17.41;52.66
22917;DHT22;11624;53.250;7.456;2024-01-30T13:00:25;17.48;52.46
22917;DHT22;11624;53.250;7.456;2024-01-30T13:02:54;17.40;52.59
22917;DHT22;11624;53.250;7.456;2024-01-30T13:05:22;17.39;52.62
22917;DHT22;11624;53.250;7.456;2024-01-30T13:07:51;17.50;52.42
22917;DHT22;11624;53.250;7.456;2024-01-30T13:10:20;17.55;52.26
22917;DHT22;11624;53.250;7.456;2024-01-30T13:12:49;17.54;52.27
22917;DHT22;11624;53.250;7.456;2024-01-30T13:15:17;17.54;52.36
22917;DHT22;11624;53.250;7.456;2024-01-30T13:17:47;17.54;52.36
22917;DHT22;11624;53.250;7.456;2024-01-30T13:20:15;17.56;52.27
22917;DHT22;11624;53.250;7.456;2024-01-30T13:22:47;17.59;52.27
22917;DHT22;11624;53.250;7.456;2024-01-30T13:25:16;17.54;52.33
22917;DHT22;11624;53.250;7.456;2024-01-30T13:27:46;17.44;52.49
22917;DHT22;11624;53.250;7.456;2024-01-30T13:30:14;17.30;52.81
22917;DHT22;11624;53.250;7.456;2024-01-30T13:32:43;17.30;52.60
22917;DHT22;11624;53.250;7.456;2024-01-30T13:35:14;17.19;52.56
22917;DHT22;11624;53.250;7.456;2024-01-30T13:37:43;17.13;52.58
22917;DHT22;11624;53.250;7.456;2024-01-30T13:40:14;17.10;52.53
22917;DHT22;11624;53.250;7.456;2024-01-30T13:42:43;17.07;52.63
22917;DHT22;11624;53.250;7.456;2024-01-30T13:45:12;17.14;52.56
22917;DHT22;11624;53.250;7.456;2024-01-30T13:47:41;17.19;52.28
22917;DHT22;11624;53.250;7.456;2024-01-30T13:50:10;17.17;51.88
22917;DHT22;11624;53.250;7.456;2024-01-30T13:52:43;17.21;51.59
22917;DHT22;11624;53.250;7.456;2024-01-30T13:55:12;17.23;51.40
22917;DHT22;11624;53.250;7.456;2024-01-30T13:57:41;17.16;50.98
22917;DHT22;11624;53.250;7.456;2024-01-30T14:00:10;17.15;50.98
22917;DHT22;11624;53.250;7.456;2024-01-30T14:02:43;16.99;51.22
22917;DHT22;11624;53.250;7.456;2024-01-30T14:05:12;17.03;51.13
22917;DHT22;11624;53.250;7.456;2024-01-30T14:07:42;17.01;50.94
22917;DHT22;11624;53.250;7.456;2024-01-30T14:10:12;17.05;50.90
22917;DHT22;11624;53.250;7.456;2024-01-30T14:12:42;17.02;50.14
22917;DHT22;11624;53.250;7.456;2024-01-30T14:15:12;16.95;50.00
22917;DHT22;11624;53.250;7.456;2024-01-30T14:17:54;16.82;50.04
22917;DHT22;11624;53.250;7.456;2024-01-30T14:20:25;16.70;50.24
22917;DHT22;11624;53.250;7.456;2024-01-30T14:22:55;16.72;50.32
22917;DHT22;11624;53.250;7.456;2024-01-30T14:25:24;16.69;50.37
22917;DHT22;11624;53.250;7.456;2024-01-30T14:27:53;16.70;50.44
22917;DHT22;11624;53.250;7.456;2024-01-30T14:30:21;16.65;50.70
22917;DHT22;11624;53.250;7.456;2024-01-30T14:32:50;16.57;50.54
22917;DHT22;11624;53.250;7.456;2024-01-30T14:35:19;16.44;50.90
22917;DHT22;11624;53.250;7.456;2024-01-30T14:37:49;16.36;50.96
22917;DHT22;11624;53.250;7.456;2024-01-30T14:40:19;16.58;50.66
22917;DHT22;11624;53.250;7.456;2024-01-30T14:42:48;16.66;50.34
22917;DHT22;11624;53.250;7.456;2024-01-30T14:45:16;16.76;50.08
22917;DHT22;11624;53.250;7.456;2024-01-30T14:47:45;16.70;50.32
22917;DHT22;11624;53.250;7.456;2024-01-30T14:50:14;17.06;49.85
22917;DHT22;11624;53.250;7.456;2024-01-30T14:52:44;17.30;48.80
22917;DHT22;11624;53.250;7.456;2024-01-30T14:55:12;17.29;47.92
22917;DHT22;11624;53.250;7.456;2024-01-30T14:57:43;17.16;48.61
22917;DHT22;11624;53.250;7.456;2024-01-30T15:00:13;17.48;48.58
22917;DHT22;11624;53.250;7.456;2024-01-30T15:02:44;17.90;47.05
22917;DHT22;11624;53.250;7.456;2024-01-30T15:05:14;18.02;45.93
22917;DHT22;11624;53.250;7.456;2024-01-30T15:07:43;17.92;45.93
22917;DHT22;11624;53.250;7.456;2024-01-30T15:10:12;17.77;45.83
22917;DHT22;11624;53.250;7.456;2024-01-30T15:12:41;17.50;46.21
22917;DHT22;11624;53.250;7.456;2024-01-30T15:15:10;17.04;47.38
22917;DHT22;11624;53.250;7.456;2024-01-30T15:17:39;16.79;48.12
22917;DHT22;11624;53.250;7.456;2024-01-30T15:20:08;16.48;49.22
22917;DHT22;11624;53.250;7.456;2024-01-30T15:22:37;16.36;49.64
22917;DHT22;11624;53.250;7.456;2024-01-30T15:25:07;16.22;50.20
22917;DHT22;11624;53.250;7.456;2024-01-30T15:27:36;16.19;50.40
22917;DHT22;11624;53.250;7.456;2024-01-30T15:30:06;16.18;50.59
22917;DHT22;11624;53.250;7.456;2024-01-30T15:32:36;16.16;50.82
22917;DHT22;11624;53.250;7.456;2024-01-30T15:35:05;16.12;51.11
22917;DHT22;11624;53.250;7.456;2024-01-30T15:37:34;15.87;52.35
22917;DHT22;11624;53.250;7.456;2024-01-30T15:40:03;15.84;52.63
22917;DHT22;11624;53.250;7.456;2024-01-30T15:42:33;15.75;53.22